sensor_id;sensor_type;location;lat;lon;timestamp;pressure;altitude;pressure_sealevel;temperature;humidity
30021;BME280;16861;52.294;7.760;2022-07-04T00:02:22;100155.53;;;19.53;50.40
30021;BME280;16861;52.294;7.760;2022-07-04T00:04:49;100162.00;;;19.50;50.42
30021;BME280;16861;52.294;7.760;2022-07-04T00:07:16;100156.66;;;19.50;50.33
30021;BME280;16861;52.294;7.760;2022-07-04T00:09:43;100151.56;;;19.47;50.49
30021;BME280;16861;52.294;7.760;2022-07-04T00:12:09;100151.69;;;19.46;50.49
30021;BME280;16861;52.294;7.760;2022-07-04T00:14:36;100152.69;;;19.45;50.97
30021;BME280;16861;52.294;7.760;2022-07-04T00:17:06;100152.13;;;19.41;50.74
30021;BME280;16861;52.294;7.760;2022-07-04T00:19:33;100149.59;;;19.39;50.83
30021;BME280;16861;52.294;7.760;2022-07-04T00:22:00;100152.53;;;19.36;50.78
30021;BME280;16861;52.294;7.760;2022-07-04T00:24:27;100150.97;;;19.34;50.74
30021;BME280;16861;52.294;7.760;2022-07-04T00:26:53;100158.28;;;19.32;51.01
30021;BME280;16861;52.294;7.760;2022-07-04T00:29:20;100152.47;;;19.26;51.11
30021;BME280;16861;52.294;7.760;2022-07-04T00:31:46;100139.44;;;19.23;51.16
30021;BME280;16861;52.294;7.760;2022-07-04T00:34:13;100150.34;;;19.20;50.90
30021;BME280;16861;52.294;7.760;2022-07-04T00:36:40;100148.81;;;19.18;51.25
30021;BME280;16861;52.294;7.760;2022-07-04T00:39:06;100146.41;;;19.14;51.73
30021;BME280;16861;52.294;7.760;2022-07-04T00:41:33;100150.06;;;19.13;51.33
30021;BME280;16861;52.294;7.760;2022-07-04T00:44:10;100150.59;;;19.07;51.83
30021;BME280;16861;52.294;7.760;2022-07-04T00:46:40;100154.09;;;19.08;51.69
30021;BME280;16861;52.294;7.760;2022-07-04T00:49:08;100150.59;;;19.07;51.63
30021;BME280;16861;52.294;7.760;2022-07-04T00:51:39;100154.47;;;19.03;51.92
30021;BME280;16861;52.294;7.760;2022-07-04T00:54:08;100152.06;;;19.00;51.62
30021;BME280;16861;52.294;7.760;2022-07-04T00:56:39;100152.31;;;18.97;52.91
30021;BME280;16861;52.294;7.760;2022-07-04T00:59:06;100150.63;;;18.96;51.99
30021;BME280;16861;52.294;7.760;2022-07-04T01:01:33;100156.22;;;18.93;51.94
30021;BME280;16861;52.294;7.760;2022-07-04T01:04:05;100152.13;;;18.88;53.33
30021;BME280;16861;52.294;7.760;2022-07-04T01:06:32;100152.13;;;18.88;52.67
30021;BME280;16861;52.294;7.760;2022-07-04T01:09:00;100144.25;;;18.87;52.38
30021;BME280;16861;52.294;7.760;2022-07-04T01:11:27;100147.09;;;18.85;52.65
30021;BME280;16861;52.294;7.760;2022-07-04T01:13:54;100149.75;;;18.85;52.69
30021;BME280;16861;52.294;7.760;2022-07-04T01:16:20;100143.69;;;18.83;52.43
30021;BME280;16861;52.294;7.760;2022-07-04T01:18:47;100143.00;;;18.81;52.54
30021;BME280;16861;52.294;7.760;2022-07-04T01:21:14;100144.94;;;18.79;52.74
30021;BME280;16861;52.294;7.760;2022-07-04T01:23:41;100145.91;;;18.78;52.65
30021;BME280;16861;52.294;7.760;2022-07-04T01:26:07;100147.84;;;18.76;52.76
30021;BME280;16861;52.294;7.760;2022-07-04T01:28:34;100139.28;;;18.72;52.40
30021;BME280;16861;52.294;7.760;2022-07-04T01:31:01;100144.75;;;18.71;52.44
30021;BME280;16861;52.294;7.760;2022-07-04T01:33:28;100137.97;;;18.67;52.68
30021;BME280;16861;52.294;7.760;2022-07-04T01:35:54;100134.63;;;18.65;52.80
30021;BME280;16861;52.294;7.760;2022-07-04T01:38:21;100134.88;;;18.61;52.88
30021;BME280;16861;52.294;7.760;2022-07-04T01:40:48;100139.50;;;18.59;53.16
30021;BME280;16861;52.294;7.760;2022-07-04T01:43:14;100130.75;;;18.57;53.17
30021;BME280;16861;52.294;7.760;2022-07-04T01:45:41;100135.41;;;18.55;52.95
30021;BME280;16861;52.294;7.760;2022-07-04T01:48:09;100138.31;;;18.52;53.31
30021;BME280;16861;52.294;7.760;2022-07-04T01:50:36;100141.22;;;18.49;53.22
30021;BME280;16861;52.294;7.760;2022-07-04T01:53:03;100140.53;;;18.47;53.32
30021;BME280;16861;52.294;7.760;2022-07-04T01:55:30;100143.19;;;18.47;53.67
30021;BME280;16861;52.294;7.760;2022-07-04T01:57:57;100145.38;;;18.42;54.30
30021;BME280;16861;52.294;7.760;2022-07-04T02:00:24;100139.34;;;18.40;53.58
30021;BME280;16861;52.294;7.760;2022-07-04T02:03:10;100144.69;;;18.40;53.54
30021;BME280;16861;52.294;7.760;2022-07-04T02:05:37;100143.97;;;18.38;53.54
30021;BME280;16861;52.294;7.760;2022-07-04T02:08:04;100149.44;;;18.36;53.58
30021;BME280;16861;52.294;7.760;2022-07-04T02:10:31;100143.38;;;18.34;53.81
30021;BME280;16861;52.294;7.760;2022-07-04T02:12:58;100140.00;;;18.32;54.08
30021;BME280;16861;52.294;7.760;2022-07-04T02:15:29;100132.13;;;18.30;54.63
30021;BME280;16861;52.294;7.760;2022-07-04T02:17:57;100131.28;;;18.30;54.41
30021;BME280;16861;52.294;7.760;2022-07-04T02:20:25;100133.13;;;18.29;54.44
30021;BME280;16861;52.294;7.760;2022-07-04T02:22:52;100132.38;;;18.27;54.38
30021;BME280;16861;52.294;7.760;2022-07-04T02:25:18;100135.16;;;18.26;54.37
30021;BME280;16861;52.294;7.760;2022-07-04T02:27:45;100129.97;;;18.24;54.52
30021;BME280;16861;52.294;7.760;2022-07-04T02:30:12;100140.78;;;18.22;54.52
30021;BME280;16861;52.294;7.760;2022-07-04T02:32:39;100138.94;;;18.23;54.67
30021;BME280;16861;52.294;7.760;2022-07-04T02:35:06;100132.91;;;18.21;54.42
30021;BME280;16861;52.294;7.760;2022-07-04T02:37:33;100133.03;;;18.19;54.76
30021;BME280;16861;52.294;7.760;2022-07-04T02:40:00;100134.00;;;18.18;54.55
30021;BME280;16861;52.294;7.760;2022-07-04T02:42:31;100138.72;;;18.15;55.18
30021;BME280;16861;52.294;7.760;2022-07-04T02:44:58;100138.72;;;18.15;54.54
30021;BME280;16861;52.294;7.760;2022-07-04T02:47:25;100139.81;;;18.12;54.75
30021;BME280;16861;52.294;7.760;2022-07-04T02:49:53;100141.91;;;18.08;54.96
30021;BME280;16861;52.294;7.760;2022-07-04T02:52:19;100151.72;;;18.08;54.68
30021;BME280;16861;52.294;7.760;2022-07-04T02:54:46;100150.13;;;18.05;55.03
30021;BME280;16861;52.294;7.760;2022-07-04T02:57:15;100155.69;;;18.02;55.09
30021;BME280;16861;52.294;7.760;2022-07-04T02:59:42;100155.97;;;17.99;54.90
30021;BME280;16861;52.294;7.760;2022-07-04T03:02:09;100162.38;;;17.96;55.05
30021;BME280;16861;52.294;7.760;2022-07-04T03:04:35;100161.78;;;17.93;55.55
30021;BME280;16861;52.294;7.760;2022-07-04T03:07:09;100163.84;;;17.89;56.33
30021;BME280;16861;52.294;7.760;2022-07-04T03:09:35;100163.84;;;17.89;55.62
30021;BME280;16861;52.294;7.760;2022-07-04T03:12:02;100169.31;;;17.88;55.45
30021;BME280;16861;52.294;7.760;2022-07-04T03:14:29;100171.09;;;17.87;55.56
30021;BME280;16861;52.294;7.760;2022-07-04T03:16:55;100179.25;;;17.86;55.60
30021;BME280;16861;52.294;7.760;2022-07-04T03:19:22;100175.97;;;17.82;55.44
30021;BME280;16861;52.294;7.760;2022-07-04T03:21:49;100180.72;;;17.78;55.61
30021;BME280;16861;52.294;7.760;2022-07-04T03:24:15;100184.59;;;17.74;55.91
30021;BME280;16861;52.294;7.760;2022-07-04T03:26:42;100184.00;;;17.70;55.81
30021;BME280;16861;52.294;7.760;2022-07-04T03:29:08;100193.06;;;17.68;55.84
30021;BME280;16861;52.294;7.760;2022-07-04T03:31:35;100197.66;;;17.66;55.95
30021;BME280;16861;52.294;7.760;2022-07-04T03:34:03;100203.97;;;17.65;56.17
30021;BME280;16861;52.294;7.760;2022-07-04T03:36:29;100198.63;;;17.65;56.52
30021;BME280;16861;52.294;7.760;2022-07-04T03:38:56;100195.13;;;17.64;56.69
30021;BME280;16861;52.294;7.760;2022-07-04T03:41:22;100195.97;;;17.65;56.55
30021;BME280;16861;52.294;7.760;2022-07-04T03:43:49;100207.44;;;17.65;56.44
30021;BME280;16861;52.294;7.760;2022-07-04T03:46:15;100203.84;;;17.66;56.36
30021;BME280;16861;52.294;7.760;2022-07-04T03:48:42;100202.00;;;17.67;56.54
30021;BME280;16861;52.294;7.760;2022-07-04T03:51:11;100200.31;;;17.66;56.88
30021;BME280;16861;52.294;7.760;2022-07-04T03:53:38;100204.66;;;17.67;56.64
30021;BME280;16861;52.294;7.760;2022-07-04T03:56:05;100213.50;;;17.67;56.78
30021;BME280;16861;52.294;7.760;2022-07-04T03:58:31;100214.38;;;17.68;56.73
30021;BME280;16861;52.294;7.760;2022-07-04T04:00:58;100213.50;;;17.67;56.81
30021;BME280;16861;52.294;7.760;2022-07-04T04:03:25;100216.19;;;17.67;56.84
30021;BME280;16861;52.294;7.760;2022-07-04T04:06:10;100218.97;;;17.66;56.74
30021;BME280;16861;52.294;7.760;2022-07-04T04:08:36;100223.44;;;17.65;56.59
30021;BME280;16861;52.294;7.760;2022-07-04T04:11:03;100218.25;;;17.64;56.91
30021;BME280;16861;52.294;7.760;2022-07-04T04:13:30;100217.28;;;17.65;56.95
30021;BME280;16861;52.294;7.760;2022-07-04T04:15:56;100223.44;;;17.65;57.13
30021;BME280;16861;52.294;7.760;2022-07-04T04:18:23;100223.44;;;17.65;57.31
30021;BME280;16861;52.294;7.760;2022-07-04T04:20:49;100228.63;;;17.67;57.40
30021;BME280;16861;52.294;7.760;2022-07-04T04:23:16;100226.72;;;17.69;57.38
30021;BME280;16861;52.294;7.760;2022-07-04T04:25:43;100221.25;;;17.70;57.53
30021;BME280;16861;52.294;7.760;2022-07-04T04:28:09;100221.00;;;17.74;57.48
30021;BME280;16861;52.294;7.760;2022-07-04T04:30:36;100230.69;;;17.75;57.60
30021;BME280;16861;52.294;7.760;2022-07-04T04:33:02;100233.97;;;17.78;57.65
30021;BME280;16861;52.294;7.760;2022-07-04T04:35:29;100232.00;;;17.80;57.85
30021;BME280;16861;52.294;7.760;2022-07-04T04:37:56;100230.06;;;17.82;57.54
30021;BME280;16861;52.294;7.760;2022-07-04T04:40:22;100232.50;;;17.86;57.60
30021;BME280;16861;52.294;7.760;2022-07-04T04:42:49;100227.88;;;17.88;57.71
30021;BME280;16861;52.294;7.760;2022-07-04T04:45:15;100237.56;;;17.89;57.76
30021;BME280;16861;52.294;7.760;2022-07-04T04:47:42;100240.09;;;17.90;57.67
30021;BME280;16861;52.294;7.760;2022-07-04T04:50:10;100245.31;;;17.92;57.82
30021;BME280;16861;52.294;7.760;2022-07-04T04:52:38;100247.75;;;17.95;57.87
30021;BME280;16861;52.294;7.760;2022-07-04T04:55:05;100245.91;;;17.95;58.02
30021;BME280;16861;52.294;7.760;2022-07-04T04:57:32;100236.81;;;17.98;57.89
30021;BME280;16861;52.294;7.760;2022-07-04T04:59:59;100249.06;;;18.01;57.74
30021;BME280;16861;52.294;7.760;2022-07-04T05:02:26;100238.25;;;18.02;57.89
30021;BME280;16861;52.294;7.760;2022-07-04T05:04:53;100233.69;;;18.04;58.06
30021;BME280;16861;52.294;7.760;2022-07-04T05:07:20;100236.84;;;18.09;57.89
30021;BME280;16861;52.294;7.760;2022-07-04T05:09:47;100234.91;;;18.12;57.81
30021;BME280;16861;52.294;7.760;2022-07-04T05:12:13;100239.97;;;18.15;58.19
30021;BME280;16861;52.294;7.760;2022-07-04T05:14:40;100240.59;;;18.18;58.26
30021;BME280;16861;52.294;7.760;2022-07-04T05:17:07;100236.81;;;18.21;58.09
30021;BME280;16861;52.294;7.760;2022-07-04T05:19:34;100249.75;;;18.26;58.14
30021;BME280;16861;52.294;7.760;2022-07-04T05:22:00;100250.38;;;18.29;58.26
30021;BME280;16861;52.294;7.760;2022-07-04T05:24:27;100257.13;;;18.33;58.08
30021;BME280;16861;52.294;7.760;2022-07-04T05:26:53;100262.06;;;18.38;58.04
30021;BME280;16861;52.294;7.760;2022-07-04T05:29:24;100250.31;;;18.41;58.09
30021;BME280;16861;52.294;7.760;2022-07-04T05:31:50;100258.06;;;18.44;57.86
30021;BME280;16861;52.294;7.760;2022-07-04T05:34:17;100265.81;;;18.47;57.64
30021;BME280;16861;52.294;7.760;2022-07-04T05:36:45;100261.91;;;18.51;57.83
30021;BME280;16861;52.294;7.760;2022-07-04T05:39:11;100261.78;;;18.53;57.65
30021;BME280;16861;52.294;7.760;2022-07-04T05:41:38;100258.84;;;18.56;57.83
30021;BME280;16861;52.294;7.760;2022-07-04T05:44:05;100264.81;;;18.59;57.60
30021;BME280;16861;52.294;7.760;2022-07-04T05:46:31;100269.03;;;18.62;57.85
30021;BME280;16861;52.294;7.760;2022-07-04T05:48:58;100259.94;;;18.65;57.56
30021;BME280;16861;52.294;7.760;2022-07-04T05:51:24;100254.31;;;18.68;57.72
30021;BME280;16861;52.294;7.760;2022-07-04T05:53:51;100249.72;;;18.70;57.68
30021;BME280;16861;52.294;7.760;2022-07-04T05:56:18;100250.28;;;18.73;57.41
30021;BME280;16861;52.294;7.760;2022-07-04T05:58:45;100243.84;;;18.76;57.30
30021;BME280;16861;52.294;7.760;2022-07-04T06:01:11;100239.97;;;18.80;57.61
30021;BME280;16861;52.294;7.760;2022-07-04T06:03:38;100245.91;;;18.84;57.40
30021;BME280;16861;52.294;7.760;2022-07-04T06:06:05;100241.13;;;18.87;57.06
30021;BME280;16861;52.294;7.760;2022-07-04T06:08:32;100243.56;;;18.91;57.09
30021;BME280;16861;52.294;7.760;2022-07-04T06:10:59;100247.66;;;18.95;56.70
30021;BME280;16861;52.294;7.760;2022-07-04T06:13:26;100242.03;;;18.98;56.66
30021;BME280;16861;52.294;7.760;2022-07-04T06:15:54;100243.47;;;19.02;56.60
30021;BME280;16861;52.294;7.760;2022-07-04T06:18:20;100243.25;;;19.05;56.21
30021;BME280;16861;52.294;7.760;2022-07-04T06:20:47;100249.16;;;19.09;56.27
30021;BME280;16861;52.294;7.760;2022-07-04T06:23:13;100251.44;;;19.13;55.67
30021;BME280;16861;52.294;7.760;2022-07-04T06:25:40;100248.53;;;19.17;56.06
30021;BME280;16861;52.294;7.760;2022-07-04T06:28:07;100247.28;;;19.21;56.28
30021;BME280;16861;52.294;7.760;2022-07-04T06:30:53;100250.53;;;19.24;55.62
30021;BME280;16861;52.294;7.760;2022-07-04T06:33:20;100262.75;;;19.27;55.19
30021;BME280;16861;52.294;7.760;2022-07-04T06:35:47;100264.31;;;19.30;55.30
30021;BME280;16861;52.294;7.760;2022-07-04T06:38:25;100265.03;;;19.32;54.90
30021;BME280;16861;52.294;7.760;2022-07-04T06:40:57;100264.88;;;19.33;55.07
30021;BME280;16861;52.294;7.760;2022-07-04T06:43:25;100263.66;;;19.37;54.66
30021;BME280;16861;52.294;7.760;2022-07-04T06:45:52;100261.72;;;19.39;54.92
30021;BME280;16861;52.294;7.760;2022-07-04T06:48:19;100261.44;;;19.43;55.05
30021;BME280;16861;52.294;7.760;2022-07-04T06:50:45;100255.81;;;19.46;54.83
30021;BME280;16861;52.294;7.760;2022-07-04T06:53:12;100258.97;;;19.51;54.48
30021;BME280;16861;52.294;7.760;2022-07-04T06:55:40;100259.53;;;19.55;54.65
30021;BME280;16861;52.294;7.760;2022-07-04T06:58:07;100264.44;;;19.59;54.10
30021;BME280;16861;52.294;7.760;2022-07-04T07:00:35;100271.22;;;19.63;54.01
30021;BME280;16861;52.294;7.760;2022-07-04T07:03:03;100260.28;;;19.66;53.40
30021;BME280;16861;52.294;7.760;2022-07-04T07:05:30;100267.03;;;19.71;53.17
30021;BME280;16861;52.294;7.760;2022-07-04T07:08:16;100260.44;;;19.75;52.99
30021;BME280;16861;52.294;7.760;2022-07-04T07:10:43;100262.72;;;19.79;53.16
30021;BME280;16861;52.294;7.760;2022-07-04T07:13:09;100262.31;;;19.84;52.72
30021;BME280;16861;52.294;7.760;2022-07-04T07:15:36;100261.19;;;19.87;52.83
30021;BME280;16861;52.294;7.760;2022-07-04T07:18:04;100260.66;;;19.93;52.90
30021;BME280;16861;52.294;7.760;2022-07-04T07:20:31;100256.72;;;19.97;52.82
30021;BME280;16861;52.294;7.760;2022-07-04T07:22:57;100265.34;;;20.01;52.64
30021;BME280;16861;52.294;7.760;2022-07-04T07:25:24;100258.75;;;20.05;52.96
30021;BME280;16861;52.294;7.760;2022-07-04T07:27:51;100265.38;;;20.11;52.92
30021;BME280;16861;52.294;7.760;2022-07-04T07:30:18;100263.97;;;20.16;52.51
30021;BME280;16861;52.294;7.760;2022-07-04T07:32:44;100266.22;;;20.21;52.75
30021;BME280;16861;52.294;7.760;2022-07-04T07:35:11;100269.19;;;20.28;52.24
30021;BME280;16861;52.294;7.760;2022-07-04T07:37:38;100267.06;;;20.31;52.36
30021;BME280;16861;52.294;7.760;2022-07-04T07:40:05;100270.06;;;20.38;51.88
30021;BME280;16861;52.294;7.760;2022-07-04T07:42:32;100263.16;;;20.46;51.84
30021;BME280;16861;52.294;7.760;2022-07-04T07:45:00;100261.63;;;20.53;52.00
30021;BME280;16861;52.294;7.760;2022-07-04T07:47:27;100259.34;;;20.58;51.55
30021;BME280;16861;52.294;7.760;2022-07-04T07:49:54;100264.84;;;20.66;51.87
30021;BME280;16861;52.294;7.760;2022-07-04T07:52:21;100258.09;;;20.72;50.83
30021;BME280;16861;52.294;7.760;2022-07-04T07:54:52;100260.06;;;20.80;50.52
30021;BME280;16861;52.294;7.760;2022-07-04T07:57:28;100248.66;;;20.88;50.18
30021;BME280;16861;52.294;7.760;2022-07-04T07:59:55;100255.28;;;20.93;50.50
30021;BME280;16861;52.294;7.760;2022-07-04T08:02:22;100249.38;;;21.00;49.87
30021;BME280;16861;52.294;7.760;2022-07-04T08:05:09;100245.13;;;21.07;49.68
30021;BME280;16861;52.294;7.760;2022-07-04T08:07:37;100248.91;;;21.14;49.36
30021;BME280;16861;52.294;7.760;2022-07-04T08:10:04;100250.03;;;21.21;49.80
30021;BME280;16861;52.294;7.760;2022-07-04T08:12:31;100244.94;;;21.28;48.91
30021;BME280;16861;52.294;7.760;2022-07-04T08:14:57;100237.97;;;21.35;49.20
30021;BME280;16861;52.294;7.760;2022-07-04T08:17:31;100244.31;;;21.44;48.47
30021;BME280;16861;52.294;7.760;2022-07-04T08:19:58;100234.84;;;21.50;48.67
30021;BME280;16861;52.294;7.760;2022-07-04T08:22:24;100243.81;;;21.59;48.37
30021;BME280;16861;52.294;7.760;2022-07-04T08:24:51;100235.03;;;21.67;48.11
30021;BME280;16861;52.294;7.760;2022-07-04T08:27:18;100237.03;;;21.74;47.83
30021;BME280;16861;52.294;7.760;2022-07-04T08:29:44;100234.59;;;21.81;47.70
30021;BME280;16861;52.294;7.760;2022-07-04T08:32:11;100252.88;;;21.86;47.81
30021;BME280;16861;52.294;7.760;2022-07-04T08:34:38;100249.63;;;21.92;47.51
30021;BME280;16861;52.294;7.760;2022-07-04T08:37:05;100247.31;;;21.97;47.29
30021;BME280;16861;52.294;7.760;2022-07-04T08:39:31;100245.75;;;22.05;47.13
30021;BME280;16861;52.294;7.760;2022-07-04T08:42:02;100241.59;;;22.10;46.43
30021;BME280;16861;52.294;7.760;2022-07-04T08:44:30;100244.34;;;22.19;46.84
30021;BME280;16861;52.294;7.760;2022-07-04T08:46:56;100244.78;;;22.24;46.50
30021;BME280;16861;52.294;7.760;2022-07-04T08:49:27;100238.09;;;22.28;45.71
30021;BME280;16861;52.294;7.760;2022-07-04T08:52:03;100239.16;;;22.35;46.63
30021;BME280;16861;52.294;7.760;2022-07-04T08:54:32;100247.28;;;22.44;46.44
30021;BME280;16861;52.294;7.760;2022-07-04T08:57:18;100240.00;;;22.54;46.03
30021;BME280;16861;52.294;7.760;2022-07-04T09:00:05;100238.94;;;22.65;46.35
30021;BME280;16861;52.294;7.760;2022-07-04T09:02:33;100240.72;;;22.74;46.45
30021;BME280;16861;52.294;7.760;2022-07-04T09:05:00;100244.81;;;22.87;46.21
30021;BME280;16861;52.294;7.760;2022-07-04T09:07:27;100239.19;;;22.98;45.28
30021;BME280;16861;52.294;7.760;2022-07-04T09:09:56;100244.16;;;23.11;44.52
30021;BME280;16861;52.294;7.760;2022-07-04T09:12:24;100232.31;;;23.22;44.12
30021;BME280;16861;52.294;7.760;2022-07-04T09:14:50;100228.13;;;23.28;44.63
30021;BME280;16861;52.294;7.760;2022-07-04T09:17:20;100239.81;;;23.37;44.17
30021;BME280;16861;52.294;7.760;2022-07-04T09:20:13;100243.84;;;23.41;43.85
30021;BME280;16861;52.294;7.760;2022-07-04T09:22:41;100248.47;;;23.57;44.06
30021;BME280;16861;52.294;7.760;2022-07-04T09:25:08;100245.50;;;23.68;44.15
30021;BME280;16861;52.294;7.760;2022-07-04T09:27:37;100245.19;;;23.80;44.14
30021;BME280;16861;52.294;7.760;2022-07-04T09:30:05;100251.78;;;23.94;43.06
30021;BME280;16861;52.294;7.760;2022-07-04T09:32:51;100248.97;;;24.04;42.43
30021;BME280;16861;52.294;7.760;2022-07-04T09:35:21;100243.84;;;24.19;42.43
30021;BME280;16861;52.294;7.760;2022-07-04T09:37:56;100249.22;;;24.27;41.19
30021;BME280;16861;52.294;7.760;2022-07-04T09:40:27;100246.72;;;24.34;41.22
30021;BME280;16861;52.294;7.760;2022-07-04T09:43:10;100248.38;;;24.35;41.47
30021;BME280;16861;52.294;7.760;2022-07-04T09:45:53;100241.66;;;24.39;41.67
30021;BME280;16861;52.294;7.760;2022-07-04T09:48:21;100249.59;;;24.49;42.29
30021;BME280;16861;52.294;7.760;2022-07-04T09:50:49;100239.31;;;24.53;41.96
30021;BME280;16861;52.294;7.760;2022-07-04T09:53:15;100239.66;;;24.58;41.43
30021;BME280;16861;52.294;7.760;2022-07-04T09:55:42;100238.16;;;24.64;41.60
30021;BME280;16861;52.294;7.760;2022-07-04T09:58:11;100245.53;;;24.70;41.36
30021;BME280;16861;52.294;7.760;2022-07-04T10:00:40;100243.84;;;24.77;40.84
30021;BME280;16861;52.294;7.760;2022-07-04T10:03:25;100233.41;;;24.82;40.69
30021;BME280;16861;52.294;7.760;2022-07-04T10:08:35;100246.06;;;24.98;40.00
30021;BME280;16861;52.294;7.760;2022-07-04T10:11:03;100237.63;;;25.02;39.70
30021;BME280;16861;52.294;7.760;2022-07-04T10:13:35;100240.50;;;25.00;39.58
30021;BME280;16861;52.294;7.760;2022-07-04T10:16:02;100241.50;;;24.99;39.65
30021;BME280;16861;52.294;7.760;2022-07-04T10:18:29;100234.44;;;24.98;39.86
30021;BME280;16861;52.294;7.760;2022-07-04T10:20:56;100231.06;;;24.96;39.77
30021;BME280;16861;52.294;7.760;2022-07-04T10:23:24;100234.13;;;24.93;39.54
30021;BME280;16861;52.294;7.760;2022-07-04T10:25:56;100228.22;;;24.89;41.32
30021;BME280;16861;52.294;7.760;2022-07-04T10:28:23;100226.88;;;24.93;40.08
30021;BME280;16861;52.294;7.760;2022-07-04T10:30:52;100220.66;;;24.93;39.13
30021;BME280;16861;52.294;7.760;2022-07-04T10:33:24;100215.78;;;24.96;39.32
30021;BME280;16861;52.294;7.760;2022-07-04T10:35:56;100212.22;;;25.04;40.12
30021;BME280;16861;52.294;7.760;2022-07-04T10:38:34;100211.84;;;25.16;39.97
30021;BME280;16861;52.294;7.760;2022-07-04T10:41:06;100216.03;;;25.27;38.99
30021;BME280;16861;52.294;7.760;2022-07-04T10:49:16;100205.06;;;25.36;39.33
30021;BME280;16861;52.294;7.760;2022-07-04T10:52:09;100208.69;;;25.52;39.20
30021;BME280;16861;52.294;7.760;2022-07-04T10:54:41;100202.50;;;25.83;39.53
30021;BME280;16861;52.294;7.760;2022-07-04T10:57:20;100205.34;;;26.13;39.14
30021;BME280;16861;52.294;7.760;2022-07-04T11:05:08;100193.34;;;27.47;38.32
30021;BME280;16861;52.294;7.760;2022-07-04T11:20:31;100180.13;;;30.16;34.99
30021;BME280;16861;52.294;7.760;2022-07-04T11:23:09;100181.13;;;30.35;33.99
30021;BME280;16861;52.294;7.760;2022-07-04T11:25:37;100186.16;;;30.59;33.03
30021;BME280;16861;52.294;7.760;2022-07-04T11:28:26;100184.06;;;30.61;32.79
30021;BME280;16861;52.294;7.760;2022-07-04T11:31:12;100172.38;;;30.60;32.23
30021;BME280;16861;52.294;7.760;2022-07-04T11:33:39;100176.34;;;30.44;32.27
30021;BME280;16861;52.294;7.760;2022-07-04T11:36:16;100180.13;;;30.16;31.87
30021;BME280;16861;52.294;7.760;2022-07-04T11:41:16;100172.69;;;29.69;32.21
30021;BME280;16861;52.294;7.760;2022-07-04T11:44:03;100171.72;;;29.42;32.43
30021;BME280;16861;52.294;7.760;2022-07-04T11:46:48;100164.28;;;29.15;32.67
30021;BME280;16861;52.294;7.760;2022-07-04T11:49:15;100174.59;;;28.91;33.33
30021;BME280;16861;52.294;7.760;2022-07-04T11:51:46;100166.72;;;28.74;34.07
30021;BME280;16861;52.294;7.760;2022-07-04T11:54:14;100166.16;;;28.79;34.65
30021;BME280;16861;52.294;7.760;2022-07-04T11:57:14;100160.84;;;28.93;34.08
30021;BME280;16861;52.294;7.760;2022-07-04T11:59:41;100161.34;;;29.10;33.63
30021;BME280;16861;52.294;7.760;2022-07-04T12:02:15;100163.22;;;29.09;32.92
30021;BME280;16861;52.294;7.760;2022-07-04T12:04:42;100162.97;;;29.04;32.65
30021;BME280;16861;52.294;7.760;2022-07-04T12:07:14;100161.59;;;28.86;32.49
30021;BME280;16861;52.294;7.760;2022-07-04T12:09:42;100156.75;;;28.75;33.52
30021;BME280;16861;52.294;7.760;2022-07-04T12:12:13;100167.56;;;28.75;34.71
30021;BME280;16861;52.294;7.760;2022-07-04T12:15:05;100165.78;;;28.89;34.42
30021;BME280;16861;52.294;7.760;2022-07-04T12:17:37;100159.50;;;29.17;32.22
30021;BME280;16861;52.294;7.760;2022-07-04T12:20:15;100149.59;;;29.38;33.63
30021;BME280;16861;52.294;7.760;2022-07-04T12:22:50;100152.41;;;29.65;34.02
30021;BME280;16861;52.294;7.760;2022-07-04T12:25:28;100142.25;;;29.94;32.27
30021;BME280;16861;52.294;7.760;2022-07-04T12:27:58;100150.00;;;30.24;32.68
30021;BME280;16861;52.294;7.760;2022-07-04T12:30:27;100152.50;;;30.53;32.68
30021;BME280;16861;52.294;7.760;2022-07-04T12:33:05;100149.16;;;30.85;31.65
30021;BME280;16861;52.294;7.760;2022-07-04T12:38:13;100146.25;;;31.45;31.66
30021;BME280;16861;52.294;7.760;2022-07-04T12:46:09;100142.09;;;31.29;29.14
30021;BME280;16861;52.294;7.760;2022-07-04T12:48:38;100143.88;;;30.97;29.38
30021;BME280;16861;52.294;7.760;2022-07-04T12:53:44;100146.06;;;30.34;29.88
30021;BME280;16861;52.294;7.760;2022-07-04T12:56:30;100140.56;;;30.00;31.16
30021;BME280;16861;52.294;7.760;2022-07-04T12:59:02;100151.19;;;29.81;30.64
30021;BME280;16861;52.294;7.760;2022-07-04T13:01:36;100150.94;;;29.56;30.77
30021;BME280;16861;52.294;7.760;2022-07-04T13:04:03;100148.31;;;29.34;31.96
30021;BME280;16861;52.294;7.760;2022-07-04T13:06:30;100137.63;;;29.19;32.41
30021;BME280;16861;52.294;7.760;2022-07-04T13:08:57;100146.13;;;29.09;32.51
30021;BME280;16861;52.294;7.760;2022-07-04T13:11:24;100144.41;;;29.01;32.61
30021;BME280;16861;52.294;7.760;2022-07-04T13:14:10;100138.75;;;28.96;33.20
30021;BME280;16861;52.294;7.760;2022-07-04T13:16:36;100141.88;;;28.93;32.75
30021;BME280;16861;52.294;7.760;2022-07-04T13:19:06;100140.63;;;28.95;33.36
30021;BME280;16861;52.294;7.760;2022-07-04T13:21:33;100139.66;;;29.10;33.62
30021;BME280;16861;52.294;7.760;2022-07-04T13:23:59;100146.22;;;29.36;33.92
30021;BME280;16861;52.294;7.760;2022-07-04T13:26:26;100138.84;;;29.65;33.11
30021;BME280;16861;52.294;7.760;2022-07-04T13:28:54;100142.66;;;29.91;33.24
30021;BME280;16861;52.294;7.760;2022-07-04T13:31:21;100140.41;;;30.15;32.24
30021;BME280;16861;52.294;7.760;2022-07-04T13:33:47;100157.97;;;30.39;32.42
30021;BME280;16861;52.294;7.760;2022-07-04T13:36:14;100145.84;;;30.62;32.35
30021;BME280;16861;52.294;7.760;2022-07-04T13:38:41;100144.78;;;30.77;31.03
30021;BME280;16861;52.294;7.760;2022-07-04T13:41:28;100145.63;;;30.77;30.79